sensor_id;sensor_type;location;lat;lon;timestamp;P1;durP1;ratioP1;P2;durP2;ratioP2
13568;SDS011;6856;51.460;7.158;2023-08-30T00:00:06;2.67;;;2.23;;
13568;SDS011;6856;51.460;7.158;2023-08-30T00:02:44;4.20;;;2.33;;
13568;SDS011;6856;51.460;7.158;2023-08-30T00:05:19;2.50;;;2.00;;
13568;SDS011;6856;51.460;7.158;2023-08-30T00:07:54;2.97;;;2.30;;
13568;SDS011;6856;51.460;7.158;2023-08-30T00:10:29;2.97;;;2.37;;
13568;SDS011;6856;51.460;7.158;2023-08-30T00:13:03;3.43;;;2.40;;
13568;SDS011;6856;51.460;7.158;2023-08-30T00:15:38;4.37;;;2.70;;
13568;SDS011;6856;51.460;7.158;2023-08-30T00:18:16;4.47;;;2.70;;
13568;SDS011;6856;51.460;7.158;2023-08-30T00:20:50;4.17;;;3.20;;
13568;SDS011;6856;51.460;7.158;2023-08-30T00:23:25;3.47;;;2.80;;
13568;SDS011;6856;51.460;7.158;2023-08-30T00:25:59;3.27;;;2.87;;
13568;SDS011;6856;51.460;7.158;2023-08-30T00:28:34;3.30;;;2.80;;
13568;SDS011;6856;51.460;7.158;2023-08-30T00:31:09;4.33;;;2.70;;
13568;SDS011;6856;51.460;7.158;2023-08-30T00:33:45;4.93;;;2.77;;
13568;SDS011;6856;51.460;7.158;2023-08-30T00:36:19;2.97;;;2.67;;
13568;SDS011;6856;51.460;7.158;2023-08-30T00:38:53;4.17;;;2.90;;
13568;SDS011;6856;51.460;7.158;2023-08-30T00:41:29;2.97;;;2.50;;
13568;SDS011;6856;51.460;7.158;2023-08-30T00:44:02;4.67;;;3.03;;
13568;SDS011;6856;51.460;7.158;2023-08-30T00:46:38;3.70;;;2.87;;
13568;SDS011;6856;51.460;7.158;2023-08-30T00:49:14;2.97;;;2.30;;
13568;SDS011;6856;51.460;7.158;2023-08-30T00:51:48;3.17;;;2.17;;
13568;SDS011;6856;51.460;7.158;2023-08-30T00:54:22;4.77;;;2.73;;
13568;SDS011;6856;51.460;7.158;2023-08-30T00:56:59;3.73;;;2.83;;
13568;SDS011;6856;51.460;7.158;2023-08-30T00:59:34;3.77;;;2.90;;
13568;SDS011;6856;51.460;7.158;2023-08-30T01:02:08;5.13;;;3.70;;
13568;SDS011;6856;51.460;7.158;2023-08-30T01:04:44;4.20;;;3.20;;
13568;SDS011;6856;51.460;7.158;2023-08-30T01:07:19;5.50;;;4.13;;
13568;SDS011;6856;51.460;7.158;2023-08-30T01:09:53;4.90;;;4.00;;
13568;SDS011;6856;51.460;7.158;2023-08-30T01:12:29;4.90;;;4.27;;
13568;SDS011;6856;51.460;7.158;2023-08-30T01:15:10;4.60;;;3.47;;
13568;SDS011;6856;51.460;7.158;2023-08-30T01:17:48;4.53;;;3.87;;
13568;SDS011;6856;51.460;7.158;2023-08-30T01:20:26;5.13;;;3.90;;
13568;SDS011;6856;51.460;7.158;2023-08-30T01:23:03;3.90;;;3.00;;
13568;SDS011;6856;51.460;7.158;2023-08-30T01:25:45;4.03;;;3.20;;
13568;SDS011;6856;51.460;7.158;2023-08-30T01:28:29;4.30;;;3.50;;
13568;SDS011;6856;51.460;7.158;2023-08-30T01:31:06;3.93;;;3.03;;
13568;SDS011;6856;51.460;7.158;2023-08-30T01:33:42;5.33;;;3.40;;
13568;SDS011;6856;51.460;7.158;2023-08-30T01:36:20;4.40;;;3.23;;
13568;SDS011;6856;51.460;7.158;2023-08-30T01:38:54;4.40;;;3.37;;
13568;SDS011;6856;51.460;7.158;2023-08-30T01:41:33;4.47;;;3.67;;
13568;SDS011;6856;51.460;7.158;2023-08-30T01:44:13;6.20;;;3.47;;
13568;SDS011;6856;51.460;7.158;2023-08-30T01:46:49;4.03;;;3.53;;
13568;SDS011;6856;51.460;7.158;2023-08-30T01:49:22;3.43;;;2.87;;
13568;SDS011;6856;51.460;7.158;2023-08-30T01:51:58;3.67;;;2.83;;
13568;SDS011;6856;51.460;7.158;2023-08-30T01:54:34;4.60;;;2.80;;
13568;SDS011;6856;51.460;7.158;2023-08-30T01:57:10;4.03;;;3.00;;
13568;SDS011;6856;51.460;7.158;2023-08-30T01:59:46;3.87;;;3.07;;
13568;SDS011;6856;51.460;7.158;2023-08-30T02:02:20;3.53;;;2.80;;
13568;SDS011;6856;51.460;7.158;2023-08-30T02:04:54;4.50;;;3.20;;
13568;SDS011;6856;51.460;7.158;2023-08-30T02:07:28;3.90;;;3.10;;
13568;SDS011;6856;51.460;7.158;2023-08-30T02:10:10;5.10;;;3.40;;
13568;SDS011;6856;51.460;7.158;2023-08-30T02:12:52;4.37;;;3.47;;
13568;SDS011;6856;51.460;7.158;2023-08-30T02:15:33;4.23;;;3.33;;
13568;SDS011;6856;51.460;7.158;2023-08-30T02:18:11;4.07;;;2.83;;
13568;SDS011;6856;51.460;7.158;2023-08-30T02:20:46;4.77;;;3.67;;
13568;SDS011;6856;51.460;7.158;2023-08-30T02:23:22;4.23;;;3.27;;
13568;SDS011;6856;51.460;7.158;2023-08-30T02:25:57;5.20;;;3.67;;
13568;SDS011;6856;51.460;7.158;2023-08-30T02:28:31;5.70;;;4.20;;
13568;SDS011;6856;51.460;7.158;2023-08-30T02:31:06;4.67;;;3.73;;
13568;SDS011;6856;51.460;7.158;2023-08-30T02:33:40;5.23;;;4.00;;
13568;SDS011;6856;51.460;7.158;2023-08-30T02:36:14;5.47;;;4.20;;
13568;SDS011;6856;51.460;7.158;2023-08-30T02:38:48;5.20;;;4.03;;
13568;SDS011;6856;51.460;7.158;2023-08-30T02:41:22;4.00;;;3.53;;
13568;SDS011;6856;51.460;7.158;2023-08-30T02:43:57;4.73;;;3.90;;
13568;SDS011;6856;51.460;7.158;2023-08-30T02:46:34;5.67;;;4.33;;
13568;SDS011;6856;51.460;7.158;2023-08-30T02:49:09;5.17;;;4.10;;
13568;SDS011;6856;51.460;7.158;2023-08-30T02:51:45;4.53;;;3.73;;
13568;SDS011;6856;51.460;7.158;2023-08-30T02:54:20;6.33;;;4.63;;
13568;SDS011;6856;51.460;7.158;2023-08-30T02:56:55;5.63;;;4.73;;
13568;SDS011;6856;51.460;7.158;2023-08-30T02:59:28;5.07;;;4.00;;
13568;SDS011;6856;51.460;7.158;2023-08-30T03:02:04;5.37;;;4.20;;
13568;SDS011;6856;51.460;7.158;2023-08-30T03:04:38;4.60;;;4.03;;
13568;SDS011;6856;51.460;7.158;2023-08-30T03:07:12;4.87;;;4.10;;
13568;SDS011;6856;51.460;7.158;2023-08-30T03:09:51;5.70;;;4.50;;
13568;SDS011;6856;51.460;7.158;2023-08-30T03:12:27;4.93;;;4.00;;
13568;SDS011;6856;51.460;7.158;2023-08-30T03:15:02;6.07;;;4.60;;
13568;SDS011;6856;51.460;7.158;2023-08-30T03:17:40;6.13;;;4.67;;
13568;SDS011;6856;51.460;7.158;2023-08-30T03:20:14;4.60;;;4.20;;
13568;SDS011;6856;51.460;7.158;2023-08-30T03:22:49;5.00;;;4.27;;
13568;SDS011;6856;51.460;7.158;2023-08-30T03:25:24;6.63;;;5.10;;
13568;SDS011;6856;51.460;7.158;2023-08-30T03:28:02;6.07;;;5.30;;
13568;SDS011;6856;51.460;7.158;2023-08-30T03:30:41;6.73;;;5.20;;
13568;SDS011;6856;51.460;7.158;2023-08-30T03:33:16;6.90;;;5.60;;
13568;SDS011;6856;51.460;7.158;2023-08-30T03:35:51;6.00;;;5.40;;
13568;SDS011;6856;51.460;7.158;2023-08-30T03:38:25;6.60;;;5.50;;
13568;SDS011;6856;51.460;7.158;2023-08-30T03:40:59;6.17;;;5.57;;
13568;SDS011;6856;51.460;7.158;2023-08-30T03:43:33;5.90;;;5.03;;
13568;SDS011;6856;51.460;7.158;2023-08-30T03:46:08;5.93;;;4.97;;
13568;SDS011;6856;51.460;7.158;2023-08-30T03:48:45;7.63;;;5.80;;
13568;SDS011;6856;51.460;7.158;2023-08-30T03:51:19;6.17;;;5.57;;
13568;SDS011;6856;51.460;7.158;2023-08-30T03:53:54;6.03;;;5.23;;
13568;SDS011;6856;51.460;7.158;2023-08-30T03:56:29;6.20;;;5.17;;
13568;SDS011;6856;51.460;7.158;2023-08-30T03:59:03;7.10;;;5.33;;
13568;SDS011;6856;51.460;7.158;2023-08-30T04:01:39;9.80;;;4.80;;
13568;SDS011;6856;51.460;7.158;2023-08-30T04:04:14;6.53;;;5.80;;
13568;SDS011;6856;51.460;7.158;2023-08-30T04:06:48;6.07;;;5.43;;
13568;SDS011;6856;51.460;7.158;2023-08-30T04:09:22;6.37;;;5.43;;
13568;SDS011;6856;51.460;7.158;2023-08-30T04:11:57;5.77;;;5.17;;
13568;SDS011;6856;51.460;7.158;2023-08-30T04:14:32;6.20;;;5.53;;
13568;SDS011;6856;51.460;7.158;2023-08-30T04:17:07;5.97;;;5.20;;
13568;SDS011;6856;51.460;7.158;2023-08-30T04:19:42;6.07;;;5.43;;
13568;SDS011;6856;51.460;7.158;2023-08-30T04:22:16;5.73;;;4.73;;
13568;SDS011;6856;51.460;7.158;2023-08-30T04:24:50;7.47;;;6.10;;
13568;SDS011;6856;51.460;7.158;2023-08-30T04:27:26;6.43;;;5.77;;
13568;SDS011;6856;51.460;7.158;2023-08-30T04:29:59;7.37;;;5.87;;
13568;SDS011;6856;51.460;7.158;2023-08-30T04:32:34;6.53;;;5.23;;
13568;SDS011;6856;51.460;7.158;2023-08-30T04:35:11;6.97;;;5.60;;
13568;SDS011;6856;51.460;7.158;2023-08-30T04:37:45;6.77;;;6.07;;
13568;SDS011;6856;51.460;7.158;2023-08-30T04:40:20;6.87;;;6.17;;
13568;SDS011;6856;51.460;7.158;2023-08-30T04:42:58;7.17;;;6.47;;
13568;SDS011;6856;51.460;7.158;2023-08-30T04:45:33;7.07;;;6.37;;
13568;SDS011;6856;51.460;7.158;2023-08-30T04:48:08;7.03;;;6.23;;
13568;SDS011;6856;51.460;7.158;2023-08-30T04:50:45;8.43;;;7.63;;
13568;SDS011;6856;51.460;7.158;2023-08-30T04:53:19;10.37;;;9.23;;
13568;SDS011;6856;51.460;7.158;2023-08-30T04:55:53;10.90;;;9.87;;
13568;SDS011;6856;51.460;7.158;2023-08-30T04:58:28;10.87;;;9.67;;
13568;SDS011;6856;51.460;7.158;2023-08-30T05:01:03;8.90;;;7.93;;
13568;SDS011;6856;51.460;7.158;2023-08-30T05:03:38;9.43;;;8.53;;
13568;SDS011;6856;51.460;7.158;2023-08-30T05:06:14;9.53;;;8.57;;
13568;SDS011;6856;51.460;7.158;2023-08-30T05:08:48;12.53;;;10.17;;
13568;SDS011;6856;51.460;7.158;2023-08-30T05:11:22;10.30;;;9.27;;
13568;SDS011;6856;51.460;7.158;2023-08-30T05:13:57;11.30;;;10.07;;
13568;SDS011;6856;51.460;7.158;2023-08-30T05:16:31;12.30;;;10.93;;
13568;SDS011;6856;51.460;7.158;2023-08-30T05:19:05;11.23;;;10.07;;
13568;SDS011;6856;51.460;7.158;2023-08-30T05:21:44;11.33;;;10.23;;
13568;SDS011;6856;51.460;7.158;2023-08-30T05:24:22;10.53;;;9.53;;
13568;SDS011;6856;51.460;7.158;2023-08-30T05:26:58;9.83;;;8.80;;
13568;SDS011;6856;51.460;7.158;2023-08-30T05:29:32;12.40;;;11.20;;
13568;SDS011;6856;51.460;7.158;2023-08-30T05:32:07;12.03;;;10.83;;
13568;SDS011;6856;51.460;7.158;2023-08-30T05:34:40;11.63;;;10.53;;
13568;SDS011;6856;51.460;7.158;2023-08-30T05:37:16;10.80;;;9.63;;
13568;SDS011;6856;51.460;7.158;2023-08-30T05:39:52;10.97;;;9.87;;
13568;SDS011;6856;51.460;7.158;2023-08-30T05:42:26;11.37;;;10.27;;
13568;SDS011;6856;51.460;7.158;2023-08-30T05:45:01;12.07;;;10.87;;
13568;SDS011;6856;51.460;7.158;2023-08-30T05:47:35;11.57;;;10.40;;
13568;SDS011;6856;51.460;7.158;2023-08-30T05:50:10;11.87;;;10.60;;
13568;SDS011;6856;51.460;7.158;2023-08-30T05:52:46;10.77;;;9.73;;
13568;SDS011;6856;51.460;7.158;2023-08-30T05:55:20;11.43;;;10.30;;
13568;SDS011;6856;51.460;7.158;2023-08-30T05:57:54;10.37;;;9.30;;
13568;SDS011;6856;51.460;7.158;2023-08-30T06:00:29;11.90;;;10.33;;
13568;SDS011;6856;51.460;7.158;2023-08-30T06:03:03;9.77;;;8.77;;
13568;SDS011;6856;51.460;7.158;2023-08-30T06:05:37;9.33;;;8.33;;
13568;SDS011;6856;51.460;7.158;2023-08-30T06:08:14;11.03;;;9.93;;
13568;SDS011;6856;51.460;7.158;2023-08-30T06:10:49;11.53;;;9.87;;
13568;SDS011;6856;51.460;7.158;2023-08-30T06:13:23;9.67;;;8.70;;
13568;SDS011;6856;51.460;7.158;2023-08-30T06:15:57;9.57;;;8.07;;
13568;SDS011;6856;51.460;7.158;2023-08-30T06:18:32;10.73;;;9.63;;
13568;SDS011;6856;51.460;7.158;2023-08-30T06:21:06;10.07;;;9.07;;
13568;SDS011;6856;51.460;7.158;2023-08-30T06:23:43;11.37;;;10.27;;
13568;SDS011;6856;51.460;7.158;2023-08-30T06:26:19;10.17;;;9.00;;
13568;SDS011;6856;51.460;7.158;2023-08-30T06:28:54;10.17;;;9.17;;
13568;SDS011;6856;51.460;7.158;2023-08-30T06:31:35;12.00;;;10.70;;
13568;SDS011;6856;51.460;7.158;2023-08-30T06:34:11;12.80;;;11.33;;
13568;SDS011;6856;51.460;7.158;2023-08-30T06:36:45;12.57;;;11.27;;
13568;SDS011;6856;51.460;7.158;2023-08-30T06:39:24;11.13;;;10.10;;
13568;SDS011;6856;51.460;7.158;2023-08-30T06:41:58;11.17;;;10.07;;
13568;SDS011;6856;51.460;7.158;2023-08-30T06:44:32;11.13;;;10.03;;
13568;SDS011;6856;51.460;7.158;2023-08-30T06:47:06;11.77;;;10.53;;
13568;SDS011;6856;51.460;7.158;2023-08-30T06:49:41;10.80;;;9.70;;
13568;SDS011;6856;51.460;7.158;2023-08-30T06:52:16;11.57;;;10.37;;
13568;SDS011;6856;51.460;7.158;2023-08-30T06:54:52;12.80;;;11.53;;
13568;SDS011;6856;51.460;7.158;2023-08-30T06:57:26;10.83;;;9.73;;
13568;SDS011;6856;51.460;7.158;2023-08-30T07:00:01;11.10;;;9.60;;
13568;SDS011;6856;51.460;7.158;2023-08-30T07:02:40;11.87;;;9.53;;
13568;SDS011;6856;51.460;7.158;2023-08-30T07:05:16;10.63;;;9.63;;
13568;SDS011;6856;51.460;7.158;2023-08-30T07:07:53;10.83;;;9.67;;
13568;SDS011;6856;51.460;7.158;2023-08-30T07:10:30;10.17;;;9.07;;
13568;SDS011;6856;51.460;7.158;2023-08-30T07:13:09;9.40;;;8.50;;
13568;SDS011;6856;51.460;7.158;2023-08-30T07:15:51;9.70;;;8.73;;
13568;SDS011;6856;51.460;7.158;2023-08-30T07:18:32;9.03;;;8.13;;
13568;SDS011;6856;51.460;7.158;2023-08-30T07:21:06;11.83;;;9.03;;
13568;SDS011;6856;51.460;7.158;2023-08-30T07:23:40;9.23;;;8.07;;
13568;SDS011;6856;51.460;7.158;2023-08-30T07:26:16;10.37;;;8.67;;
13568;SDS011;6856;51.460;7.158;2023-08-30T07:28:49;8.80;;;8.00;;
13568;SDS011;6856;51.460;7.158;2023-08-30T07:31:24;8.30;;;7.37;;
13568;SDS011;6856;51.460;7.158;2023-08-30T07:33:58;8.53;;;7.57;;
13568;SDS011;6856;51.460;7.158;2023-08-30T07:36:32;8.00;;;7.20;;
13568;SDS011;6856;51.460;7.158;2023-08-30T07:39:19;7.90;;;7.10;;
13568;SDS011;6856;51.460;7.158;2023-08-30T07:41:57;7.87;;;7.07;;
13568;SDS011;6856;51.460;7.158;2023-08-30T07:44:31;9.07;;;7.13;;
13568;SDS011;6856;51.460;7.158;2023-08-30T07:47:07;8.07;;;7.23;;
13568;SDS011;6856;51.460;7.158;2023-08-30T07:49:41;7.40;;;6.60;;
13568;SDS011;6856;51.460;7.158;2023-08-30T07:52:16;6.90;;;6.20;;
13568;SDS011;6856;51.460;7.158;2023-08-30T07:55:09;7.00;;;6.10;;
13568;SDS011;6856;51.460;7.158;2023-08-30T07:57:45;8.10;;;6.13;;
13568;SDS011;6856;51.460;7.158;2023-08-30T08:00:21;8.07;;;6.90;;
13568;SDS011;6856;51.460;7.158;2023-08-30T08:02:55;6.77;;;6.07;;
13568;SDS011;6856;51.460;7.158;2023-08-30T08:05:29;6.87;;;6.13;;
13568;SDS011;6856;51.460;7.158;2023-08-30T08:08:06;5.63;;;4.97;;
13568;SDS011;6856;51.460;7.158;2023-08-30T08:10:41;6.33;;;5.00;;
13568;SDS011;6856;51.460;7.158;2023-08-30T08:13:17;5.43;;;4.77;;
13568;SDS011;6856;51.460;7.158;2023-08-30T08:15:52;6.87;;;4.63;;
13568;SDS011;6856;51.460;7.158;2023-08-30T08:18:29;7.10;;;4.63;;
13568;SDS011;6856;51.460;7.158;2023-08-30T08:21:03;5.63;;;4.17;;
13568;SDS011;6856;51.460;7.158;2023-08-30T08:23:37;5.13;;;3.47;;
13568;SDS011;6856;51.460;7.158;2023-08-30T08:26:15;4.27;;;3.13;;
13568;SDS011;6856;51.460;7.158;2023-08-30T08:28:50;3.80;;;3.00;;
13568;SDS011;6856;51.460;7.158;2023-08-30T08:31:25;5.40;;;3.20;;
13568;SDS011;6856;51.460;7.158;2023-08-30T08:34:06;3.60;;;2.80;;
13568;SDS011;6856;51.460;7.158;2023-08-30T08:36:43;3.83;;;2.77;;
13568;SDS011;6856;51.460;7.158;2023-08-30T08:39:17;3.73;;;2.77;;
13568;SDS011;6856;51.460;7.158;2023-08-30T08:41:54;4.20;;;3.00;;
13568;SDS011;6856;51.460;7.158;2023-08-30T08:44:32;7.40;;;2.73;;
13568;SDS011;6856;51.460;7.158;2023-08-30T08:47:07;3.87;;;3.17;;
13568;SDS011;6856;51.460;7.158;2023-08-30T08:49:42;12.40;;;5.13;;
13568;SDS011;6856;51.460;7.158;2023-08-30T08:52:17;13.70;;;4.77;;
13568;SDS011;6856;51.460;7.158;2023-08-30T08:55:03;4.20;;;3.00;;
13568;SDS011;6856;51.460;7.158;2023-08-30T08:57:38;4.10;;;3.03;;
13568;SDS011;6856;51.460;7.158;2023-08-30T09:00:15;4.30;;;3.27;;
13568;SDS011;6856;51.460;7.158;2023-08-30T09:02:50;4.17;;;2.87;;
13568;SDS011;6856;51.460;7.158;2023-08-30T09:05:25;4.70;;;3.30;;
13568;SDS011;6856;51.460;7.158;2023-08-30T09:08:01;3.93;;;2.87;;
13568;SDS011;6856;51.460;7.158;2023-08-30T09:10:38;4.10;;;3.20;;
13568;SDS011;6856;51.460;7.158;2023-08-30T09:13:16;3.97;;;2.77;;
13568;SDS011;6856;51.460;7.158;2023-08-30T09:15:56;3.80;;;2.77;;
13568;SDS011;6856;51.460;7.158;2023-08-30T09:18:35;4.32;;;3.08;;
13568;SDS011;6856;51.460;7.158;2023-08-30T09:21:09;4.67;;;3.37;;
13568;SDS011;6856;51.460;7.158;2023-08-30T09:23:56;4.23;;;3.00;;
13568;SDS011;6856;51.460;7.158;2023-08-30T09:26:37;3.27;;;2.53;;
13568;SDS011;6856;51.460;7.158;2023-08-30T09:29:19;5.20;;;3.07;;
13568;SDS011;6856;51.460;7.158;2023-08-30T09:31:57;4.63;;;3.30;;
13568;SDS011;6856;51.460;7.158;2023-08-30T09:34:32;3.70;;;2.73;;
13568;SDS011;6856;51.460;7.158;2023-08-30T09:37:06;4.27;;;3.33;;
13568;SDS011;6856;51.460;7.158;2023-08-30T09:39:48;5.13;;;3.37;;
13568;SDS011;6856;51.460;7.158;2023-08-30T09:42:23;4.27;;;3.10;;
13568;SDS011;6856;51.460;7.158;2023-08-30T09:45:02;3.70;;;3.07;;
13568;SDS011;6856;51.460;7.158;2023-08-30T09:48:00;4.23;;;3.20;;
13568;SDS011;6856;51.460;7.158;2023-08-30T09:50:35;3.40;;;2.73;;
13568;SDS011;6856;51.460;7.158;2023-08-30T09:53:11;5.47;;;3.40;;
13568;SDS011;6856;51.460;7.158;2023-08-30T09:55:52;3.60;;;2.77;;
13568;SDS011;6856;51.460;7.158;2023-08-30T09:58:28;5.13;;;3.17;;
13568;SDS011;6856;51.460;7.158;2023-08-30T10:01:04;4.10;;;3.20;;
13568;SDS011;6856;51.460;7.158;2023-08-30T10:03:42;4.37;;;2.90;;
13568;SDS011;6856;51.460;7.158;2023-08-30T10:06:16;5.53;;;3.17;;
13568;SDS011;6856;51.460;7.158;2023-08-30T10:08:53;2.97;;;2.30;;
13568;SDS011;6856;51.460;7.158;2023-08-30T10:11:34;3.57;;;2.37;;
13568;SDS011;6856;51.460;7.158;2023-08-30T10:14:10;5.13;;;2.60;;
13568;SDS011;6856;51.460;7.158;2023-08-30T10:16:47;3.87;;;2.23;;
13568;SDS011;6856;51.460;7.158;2023-08-30T10:19:35;3.93;;;2.50;;
13568;SDS011;6856;51.460;7.158;2023-08-30T10:22:12;3.27;;;2.50;;
13568;SDS011;6856;51.460;7.158;2023-08-30T10:24:51;3.43;;;2.53;;
13568;SDS011;6856;51.460;7.158;2023-08-30T10:27:45;3.40;;;2.47;;
13568;SDS011;6856;51.460;7.158;2023-08-30T10:30:21;2.70;;;2.13;;
13568;SDS011;6856;51.460;7.158;2023-08-30T10:32:57;4.57;;;3.03;;
13568;SDS011;6856;51.460;7.158;2023-08-30T10:35:33;4.00;;;2.60;;
13568;SDS011;6856;51.460;7.158;2023-08-30T10:38:07;3.47;;;2.53;;
13568;SDS011;6856;51.460;7.158;2023-08-30T10:40:44;3.23;;;2.60;;
13568;SDS011;6856;51.460;7.158;2023-08-30T10:43:30;4.77;;;3.17;;
13568;SDS011;6856;51.460;7.158;2023-08-30T10:46:07;4.47;;;2.83;;
13568;SDS011;6856;51.460;7.158;2023-08-30T10:48:43;6.53;;;3.37;;
13568;SDS011;6856;51.460;7.158;2023-08-30T10:51:21;4.10;;;2.97;;
13568;SDS011;6856;51.460;7.158;2023-08-30T10:54:12;4.90;;;3.20;;
13568;SDS011;6856;51.460;7.158;2023-08-30T10:56:49;4.90;;;3.23;;
13568;SDS011;6856;51.460;7.158;2023-08-30T10:59:31;4.33;;;3.03;;
13568;SDS011;6856;51.460;7.158;2023-08-30T11:02:06;4.10;;;2.90;;
13568;SDS011;6856;51.460;7.158;2023-08-30T11:04:40;4.07;;;2.97;;
13568;SDS011;6856;51.460;7.158;2023-08-30T11:07:17;4.43;;;3.20;;
13568;SDS011;6856;51.460;7.158;2023-08-30T11:09:52;4.37;;;3.30;;
13568;SDS011;6856;51.460;7.158;2023-08-30T11:12:26;3.93;;;3.00;;
13568;SDS011;6856;51.460;7.158;2023-08-30T11:15:01;3.90;;;2.83;;
13568;SDS011;6856;51.460;7.158;2023-08-30T11:17:37;3.37;;;2.63;;
13568;SDS011;6856;51.460;7.158;2023-08-30T11:20:11;3.67;;;2.90;;
13568;SDS011;6856;51.460;7.158;2023-08-30T11:22:50;3.77;;;2.70;;
13568;SDS011;6856;51.460;7.158;2023-08-30T11:25:25;4.40;;;3.07;;
13568;SDS011;6856;51.460;7.158;2023-08-30T11:28:02;4.03;;;3.33;;
13568;SDS011;6856;51.460;7.158;2023-08-30T11:30:39;5.10;;;3.50;;
13568;SDS011;6856;51.460;7.158;2023-08-30T11:33:18;3.90;;;3.30;;
13568;SDS011;6856;51.460;7.158;2023-08-30T11:35:52;5.10;;;3.67;;
13568;SDS011;6856;51.460;7.158;2023-08-30T11:38:28;4.80;;;3.03;;
13568;SDS011;6856;51.460;7.158;2023-08-30T11:41:04;4.07;;;3.10;;
13568;SDS011;6856;51.460;7.158;2023-08-30T11:43:40;4.30;;;3.10;;
13568;SDS011;6856;51.460;7.158;2023-08-30T11:46:15;3.30;;;2.97;;
13568;SDS011;6856;51.460;7.158;2023-08-30T11:48:50;3.07;;;2.63;;
13568;SDS011;6856;51.460;7.158;2023-08-30T11:51:25;3.80;;;2.60;;
13568;SDS011;6856;51.460;7.158;2023-08-30T11:54:01;3.57;;;2.70;;
13568;SDS011;6856;51.460;7.158;2023-08-30T11:56:36;4.03;;;2.67;;
13568;SDS011;6856;51.460;7.158;2023-08-30T11:59:17;2.53;;;1.93;;
13568;SDS011;6856;51.460;7.158;2023-08-30T12:01:53;2.07;;;1.70;;
13568;SDS011;6856;51.460;7.158;2023-08-30T12:04:30;1.87;;;1.50;;
13568;SDS011;6856;51.460;7.158;2023-08-30T12:07:07;1.93;;;1.67;;
13568;SDS011;6856;51.460;7.158;2023-08-30T12:09:43;1.83;;;1.63;;
13568;SDS011;6856;51.460;7.158;2023-08-30T12:12:17;1.57;;;1.13;;
13568;SDS011;6856;51.460;7.158;2023-08-30T12:14:55;2.33;;;1.63;;
13568;SDS011;6856;51.460;7.158;2023-08-30T12:17:30;2.73;;;1.60;;
13568;SDS011;6856;51.460;7.158;2023-08-30T12:20:13;1.93;;;1.37;;
13568;SDS011;6856;51.460;7.158;2023-08-30T12:22:52;2.33;;;1.50;;
13568;SDS011;6856;51.460;7.158;2023-08-30T12:25:30;1.07;;;0.97;;
13568;SDS011;6856;51.460;7.158;2023-08-30T12:28:05;1.50;;;1.27;;
13568;SDS011;6856;51.460;7.158;2023-08-30T12:30:39;2.03;;;1.40;;
13568;SDS011;6856;51.460;7.158;2023-08-30T12:33:15;1.80;;;1.57;;
13568;SDS011;6856;51.460;7.158;2023-08-30T12:35:53;2.60;;;1.60;;
13568;SDS011;6856;51.460;7.158;2023-08-30T12:38:32;2.13;;;1.40;;
13568;SDS011;6856;51.460;7.158;2023-08-30T12:41:09;2.03;;;1.37;;
13568;SDS011;6856;51.460;7.158;2023-08-30T12:43:43;1.97;;;1.60;;
13568;SDS011;6856;51.460;7.158;2023-08-30T12:46:18;2.10;;;1.50;;
13568;SDS011;6856;51.460;7.158;2023-08-30T12:48:54;1.80;;;1.37;;
13568;SDS011;6856;51.460;7.158;2023-08-30T12:51:30;2.40;;;1.60;;
13568;SDS011;6856;51.460;7.158;2023-08-30T12:54:05;1.87;;;1.60;;
13568;SDS011;6856;51.460;7.158;2023-08-30T12:56:41;4.53;;;2.07;;
13568;SDS011;6856;51.460;7.158;2023-08-30T12:59:16;2.07;;;1.70;;
13568;SDS011;6856;51.460;7.158;2023-08-30T13:01:55;1.93;;;1.67;;
13568;SDS011;6856;51.460;7.158;2023-08-30T13:04:29;2.33;;;1.83;;
13568;SDS011;6856;51.460;7.158;2023-08-30T13:07:06;1.17;;;1.07;;
13568;SDS011;6856;51.460;7.158;2023-08-30T13:09:39;1.50;;;1.30;;
13568;SDS011;6856;51.460;7.158;2023-08-30T13:12:15;2.37;;;1.53;;
13568;SDS011;6856;51.460;7.158;2023-08-30T13:14:49;1.60;;;1.30;;
13568;SDS011;6856;51.460;7.158;2023-08-30T13:17:23;1.90;;;1.47;;
13568;SDS011;6856;51.460;7.158;2023-08-30T13:19:57;1.90;;;1.53;;
13568;SDS011;6856;51.460;7.158;2023-08-30T13:22:32;2.10;;;1.63;;
13568;SDS011;6856;51.460;7.158;2023-08-30T13:25:07;2.27;;;1.50;;
13568;SDS011;6856;51.460;7.158;2023-08-30T13:27:43;2.40;;;1.70;;
13568;SDS011;6856;51.460;7.158;2023-08-30T13:30:17;1.93;;;1.77;;
13568;SDS011;6856;51.460;7.158;2023-08-30T13:32:51;2.30;;;1.60;;
13568;SDS011;6856;51.460;7.158;2023-08-30T13:35:28;2.87;;;1.83;;
13568;SDS011;6856;51.460;7.158;2023-08-30T13:38:03;2.20;;;1.70;;
13568;SDS011;6856;51.460;7.158;2023-08-30T13:40:37;2.10;;;1.90;;
13568;SDS011;6856;51.460;7.158;2023-08-30T13:43:13;2.40;;;1.80;;
13568;SDS011;6856;51.460;7.158;2023-08-30T13:45:47;2.23;;;1.80;;
13568;SDS011;6856;51.460;7.158;2023-08-30T13:48:30;2.17;;;1.67;;
13568;SDS011;6856;51.460;7.158;2023-08-30T13:51:05;2.57;;;1.80;;
13568;SDS011;6856;51.460;7.158;2023-08-30T13:53:39;1.90;;;1.70;;
13568;SDS011;6856;51.460;7.158;2023-08-30T13:56:13;2.07;;;1.40;;
13568;SDS011;6856;51.460;7.158;2023-08-30T13:58:49;1.93;;;1.50;;
13568;SDS011;6856;51.460;7.158;2023-08-30T14:01:23;1.73;;;1.40;;
13568;SDS011;6856;51.460;7.158;2023-08-30T14:03:57;1.30;;;1.17;;
13568;SDS011;6856;51.460;7.158;2023-08-30T14:06:31;2.00;;;1.50;;
13568;SDS011;6856;51.460;7.158;2023-08-30T14:09:05;1.50;;;1.40;;
13568;SDS011;6856;51.460;7.158;2023-08-30T14:11:40;1.53;;;1.37;;
13568;SDS011;6856;51.460;7.158;2023-08-30T14:14:15;1.43;;;1.33;;
13568;SDS011;6856;51.460;7.158;2023-08-30T14:16:49;1.67;;;1.40;;
13568;SDS011;6856;51.460;7.158;2023-08-30T14:19:23;1.60;;;1.50;;
13568;SDS011;6856;51.460;7.158;2023-08-30T14:21:57;2.63;;;1.73;;
13568;SDS011;6856;51.460;7.158;2023-08-30T14:24:32;1.57;;;1.47;;
13568;SDS011;6856;51.460;7.158;2023-08-30T14:27:18;2.87;;;1.80;;
13568;SDS011;6856;51.460;7.158;2023-08-30T14:29:54;2.00;;;1.80;;
13568;SDS011;6856;51.460;7.158;2023-08-30T14:32:28;2.07;;;1.73;;
13568;SDS011;6856;51.460;7.158;2023-08-30T14:35:04;2.13;;;1.60;;
13568;SDS011;6856;51.460;7.158;2023-08-30T14:37:38;2.23;;;1.60;;
13568;SDS011;6856;51.460;7.158;2023-08-30T14:40:15;1.87;;;1.60;;
13568;SDS011;6856;51.460;7.158;2023-08-30T14:42:49;2.37;;;1.67;;
13568;SDS011;6856;51.460;7.158;2023-08-30T14:45:25;1.97;;;1.50;;
13568;SDS011;6856;51.460;7.158;2023-08-30T14:47:59;2.13;;;1.60;;
13568;SDS011;6856;51.460;7.158;2023-08-30T14:50:35;1.80;;;1.30;;
13568;SDS011;6856;51.460;7.158;2023-08-30T14:53:09;2.27;;;1.50;;
13568;SDS011;6856;51.460;7.158;2023-08-30T14:55:43;1.87;;;1.57;;
13568;SDS011;6856;51.460;7.158;2023-08-30T14:58:18;3.03;;;2.07;;
13568;SDS011;6856;51.460;7.158;2023-08-30T15:00:54;1.60;;;1.50;;
13568;SDS011;6856;51.460;7.158;2023-08-30T15:03:29;1.80;;;1.53;;
13568;SDS011;6856;51.460;7.158;2023-08-30T15:06:04;1.87;;;1.50;;
13568;SDS011;6856;51.460;7.158;2023-08-30T15:08:38;1.60;;;1.20;;
13568;SDS011;6856;51.460;7.158;2023-08-30T15:11:14;2.10;;;1.80;;
13568;SDS011;6856;51.460;7.158;2023-08-30T15:13:50;2.47;;;1.70;;
13568;SDS011;6856;51.460;7.158;2023-08-30T15:16:26;1.90;;;1.70;;
13568;SDS011;6856;51.460;7.158;2023-08-30T15:19:00;2.37;;;1.60;;
13568;SDS011;6856;51.460;7.158;2023-08-30T15:21:35;1.57;;;1.30;;
13568;SDS011;6856;51.460;7.158;2023-08-30T15:24:09;3.10;;;1.80;;
13568;SDS011;6856;51.460;7.158;2023-08-30T15:26:49;2.20;;;2.00;;
13568;SDS011;6856;51.460;7.158;2023-08-30T15:29:23;2.07;;;1.70;;
13568;SDS011;6856;51.460;7.158;2023-08-30T15:31:58;1.93;;;1.60;;
13568;SDS011;6856;51.460;7.158;2023-08-30T15:34:34;2.60;;;1.63;;
13568;SDS011;6856;51.460;7.158;2023-08-30T15:37:08;2.33;;;1.67;;
13568;SDS011;6856;51.460;7.158;2023-08-30T15:39:45;2.60;;;1.60;;
13568;SDS011;6856;51.460;7.158;2023-08-30T15:42:35;2.10;;;1.43;;
13568;SDS011;6856;51.460;7.158;2023-08-30T15:45:09;1.30;;;1.20;;
13568;SDS011;6856;51.460;7.158;2023-08-30T15:47:45;1.43;;;1.30;;
13568;SDS011;6856;51.460;7.158;2023-08-30T15:50:20;1.93;;;1.40;;